<?xml version="1.0" encoding="UTF-8" standalone="no" ?>
<gpx xmlns="http://www.topografix.com/GPX/1/1" xmlns:xsi="http://www.w3.org/2001/XMLSchema-instance" xsi:schemaLocation="http://www.topografix.com/GPX/1/1 http://www.topografix.com/GPX/1/1/gpx.xsd" version="1.1" creator="VisuGPX - https://www.visugpx.com">
  <metadata>
    <name>Le Rocher du Coucou - Le Château du Frankenbourg</name>
  </metadata>
  <wpt lat="48.31333" lon="7.28998">
    <ele>410</ele>
    <name><![CDATA[Parking à Breitenau]]></name>
  </wpt>
  <wpt lat="48.30983" lon="7.28485">
    <ele>478</ele>
    <name><![CDATA[Sentier après la chapelle]]></name>
  </wpt>
  <wpt lat="48.30996" lon="7.28032">
    <ele>674</ele>
    <name><![CDATA[Roche du Cheval Tombé]]></name>
  </wpt>
  <wpt lat="48.30696" lon="7.27866">
    <ele>686</ele>
    <name><![CDATA[Au-dessus de la Salière]]></name>
  </wpt>
  <wpt lat="48.30471" lon="7.27941">
    <ele>656</ele>
    <name><![CDATA[Carrefour après La Salière]]></name>
  </wpt>
  <wpt lat="48.29337" lon="7.28986">
    <ele>820</ele>
    <name><![CDATA[Virage à gauche]]></name>
  </wpt>
  <wpt lat="48.29778" lon="7.29656">
    <ele>814</ele>
    <name><![CDATA[Bifurcation]]></name>
  </wpt>
  <wpt lat="48.29365" lon="7.3044">
    <ele>804</ele>
    <name><![CDATA[Point de vue]]></name>
  </wpt>
  <wpt lat="48.2952" lon="7.30928">
    <ele>835</ele>
    <name><![CDATA[Croisement de sentiers]]></name>
  </wpt>
  <wpt lat="48.2954" lon="7.31365">
    <ele>835</ele>
    <name><![CDATA[Rocher du Coucou]]></name>
  </wpt>
  <wpt lat="48.29517" lon="7.30938">
    <ele>835</ele>
    <name><![CDATA[Descente à gauche]]></name>
  </wpt>
  <wpt lat="48.30014" lon="7.30852">
    <ele>762</ele>
    <name><![CDATA[Stangenplatz]]></name>
  </wpt>
  <wpt lat="48.30302" lon="7.29419">
    <ele>752</ele>
    <name><![CDATA[Rondes Roches]]></name>
  </wpt>
  <wpt lat="48.30393" lon="7.29081">
    <ele>753</ele>
    <name><![CDATA[Roche des Fées]]></name>
  </wpt>
  <wpt lat="48.30472" lon="7.28929">
    <ele>721</ele>
    <name><![CDATA[Descente vers Breitenau]]></name>
  </wpt>
  <wpt lat="48.31331" lon="7.29003">
    <ele>411</ele>
    <name><![CDATA[Parking à Breitenau]]></name>
  </wpt>
  <trk>
    <name><![CDATA[Le Rocher du Coucou - Le Château du Frankenbourg]]></name>
    <trkseg>
      <trkpt lat="48.31333" lon="7.28998">
        <ele>410</ele>
        <time>2020-07-25T18:31:02+02:00</time>
      </trkpt>
      <trkpt lat="48.31306" lon="7.28974">
        <ele>416</ele>
        <time>2020-07-25T18:31:07+02:00</time>
      </trkpt>
      <trkpt lat="48.31283" lon="7.28947">
        <ele>420</ele>
        <time>2020-07-25T18:31:12+02:00</time>
      </trkpt>
      <trkpt lat="48.31223" lon="7.28878">
        <ele>431</ele>
        <time>2020-07-25T18:31:17+02:00</time>
      </trkpt>
      <trkpt lat="48.31202" lon="7.28856">
        <ele>434</ele>
        <time>2020-07-25T18:31:22+02:00</time>
      </trkpt>
      <trkpt lat="48.31169" lon="7.28796">
        <ele>443</ele>
        <time>2020-07-25T18:31:27+02:00</time>
      </trkpt>
      <trkpt lat="48.31095" lon="7.28658">
        <ele>460</ele>
        <time>2020-07-25T18:31:32+02:00</time>
      </trkpt>
      <trkpt lat="48.31034" lon="7.28571">
        <ele>471</ele>
        <time>2020-07-25T18:31:37+02:00</time>
      </trkpt>
      <trkpt lat="48.30997" lon="7.28502">
        <ele>472</ele>
        <time>2020-07-25T18:31:42+02:00</time>
      </trkpt>
      <trkpt lat="48.30983" lon="7.28485">
        <ele>478</ele>
        <time>2020-07-25T18:31:47+02:00</time>
      </trkpt>
      <trkpt lat="48.30957" lon="7.28436">
        <ele>490</ele>
        <time>2020-07-25T18:31:52+02:00</time>
      </trkpt>
      <trkpt lat="48.30915" lon="7.28369">
        <ele>503</ele>
        <time>2020-07-25T18:31:57+02:00</time>
      </trkpt>
      <trkpt lat="48.30933" lon="7.28375">
        <ele>505</ele>
        <time>2020-07-25T18:32:02+02:00</time>
      </trkpt>
      <trkpt lat="48.30963" lon="7.28386">
        <ele>508</ele>
        <time>2020-07-25T18:32:07+02:00</time>
      </trkpt>
      <trkpt lat="48.31" lon="7.28378">
        <ele>521</ele>
        <time>2020-07-25T18:32:12+02:00</time>
      </trkpt>
      <trkpt lat="48.30979" lon="7.28368">
        <ele>520</ele>
        <time>2020-07-25T18:32:17+02:00</time>
      </trkpt>
      <trkpt lat="48.30962" lon="7.28354">
        <ele>521</ele>
        <time>2020-07-25T18:32:22+02:00</time>
      </trkpt>
      <trkpt lat="48.30932" lon="7.28306">
        <ele>532</ele>
        <time>2020-07-25T18:32:27+02:00</time>
      </trkpt>
      <trkpt lat="48.30892" lon="7.28268">
        <ele>538</ele>
        <time>2020-07-25T18:32:32+02:00</time>
      </trkpt>
      <trkpt lat="48.30942" lon="7.28262">
        <ele>554</ele>
        <time>2020-07-25T18:32:37+02:00</time>
      </trkpt>
      <trkpt lat="48.30927" lon="7.28246">
        <ele>556</ele>
        <time>2020-07-25T18:32:42+02:00</time>
      </trkpt>
      <trkpt lat="48.30903" lon="7.28229">
        <ele>558</ele>
        <time>2020-07-25T18:32:47+02:00</time>
      </trkpt>
      <trkpt lat="48.3094" lon="7.28226">
        <ele>571</ele>
        <time>2020-07-25T18:32:52+02:00</time>
      </trkpt>
      <trkpt lat="48.30886" lon="7.28195">
        <ele>570</ele>
        <time>2020-07-25T18:32:57+02:00</time>
      </trkpt>
      <trkpt lat="48.30893" lon="7.28191">
        <ele>573</ele>
        <time>2020-07-25T18:33:02+02:00</time>
      </trkpt>
      <trkpt lat="48.30916" lon="7.28192">
        <ele>580</ele>
        <time>2020-07-25T18:33:07+02:00</time>
      </trkpt>
      <trkpt lat="48.30895" lon="7.28169">
        <ele>584</ele>
        <time>2020-07-25T18:33:12+02:00</time>
      </trkpt>
      <trkpt lat="48.30875" lon="7.28156">
        <ele>585</ele>
        <time>2020-07-25T18:33:17+02:00</time>
      </trkpt>
      <trkpt lat="48.30923" lon="7.28157">
        <ele>600</ele>
        <time>2020-07-25T18:33:22+02:00</time>
      </trkpt>
      <trkpt lat="48.30906" lon="7.28136">
        <ele>605</ele>
        <time>2020-07-25T18:33:27+02:00</time>
      </trkpt>
      <trkpt lat="48.30917" lon="7.28134">
        <ele>609</ele>
        <time>2020-07-25T18:33:32+02:00</time>
      </trkpt>
      <trkpt lat="48.30991" lon="7.2815">
        <ele>626</ele>
        <time>2020-07-25T18:33:37+02:00</time>
      </trkpt>
      <trkpt lat="48.31005" lon="7.28153">
        <ele>629</ele>
        <time>2020-07-25T18:33:42+02:00</time>
      </trkpt>
      <trkpt lat="48.31012" lon="7.28153">
        <ele>631</ele>
        <time>2020-07-25T18:33:47+02:00</time>
      </trkpt>
      <trkpt lat="48.3096" lon="7.28113">
        <ele>633</ele>
        <time>2020-07-25T18:33:52+02:00</time>
      </trkpt>
      <trkpt lat="48.30966" lon="7.2811">
        <ele>637</ele>
        <time>2020-07-25T18:33:57+02:00</time>
      </trkpt>
      <trkpt lat="48.31002" lon="7.28118">
        <ele>643</ele>
        <time>2020-07-25T18:34:02+02:00</time>
      </trkpt>
      <trkpt lat="48.31058" lon="7.28121">
        <ele>658</ele>
        <time>2020-07-25T18:34:07+02:00</time>
      </trkpt>
      <trkpt lat="48.30983" lon="7.28074">
        <ele>656</ele>
        <time>2020-07-25T18:34:12+02:00</time>
      </trkpt>
      <trkpt lat="48.31004" lon="7.28072">
        <ele>663</ele>
        <time>2020-07-25T18:34:17+02:00</time>
      </trkpt>
      <trkpt lat="48.31048" lon="7.28074">
        <ele>675</ele>
        <time>2020-07-25T18:34:22+02:00</time>
      </trkpt>
      <trkpt lat="48.31044" lon="7.28066">
        <ele>675</ele>
        <time>2020-07-25T18:34:27+02:00</time>
      </trkpt>
      <trkpt lat="48.31016" lon="7.28049">
        <ele>673</ele>
        <time>2020-07-25T18:34:32+02:00</time>
      </trkpt>
      <trkpt lat="48.30996" lon="7.28032">
        <ele>674</ele>
        <time>2020-07-25T18:34:37+02:00</time>
      </trkpt>
      <trkpt lat="48.30973" lon="7.2802">
        <ele>673</ele>
        <time>2020-07-25T18:34:42+02:00</time>
      </trkpt>
      <trkpt lat="48.30945" lon="7.27997">
        <ele>674</ele>
        <time>2020-07-25T18:34:47+02:00</time>
      </trkpt>
      <trkpt lat="48.30925" lon="7.27978">
        <ele>671</ele>
        <time>2020-07-25T18:34:52+02:00</time>
      </trkpt>
      <trkpt lat="48.30907" lon="7.27948">
        <ele>670</ele>
        <time>2020-07-25T18:34:57+02:00</time>
      </trkpt>
      <trkpt lat="48.30887" lon="7.27915">
        <ele>672</ele>
        <time>2020-07-25T18:35:02+02:00</time>
      </trkpt>
      <trkpt lat="48.30864" lon="7.27891">
        <ele>675</ele>
        <time>2020-07-25T18:35:07+02:00</time>
      </trkpt>
      <trkpt lat="48.30785" lon="7.27859">
        <ele>685</ele>
        <time>2020-07-25T18:35:12+02:00</time>
      </trkpt>
      <trkpt lat="48.30722" lon="7.27871">
        <ele>684</ele>
        <time>2020-07-25T18:35:17+02:00</time>
      </trkpt>
      <trkpt lat="48.30696" lon="7.27866">
        <ele>686</ele>
        <time>2020-07-25T18:35:22+02:00</time>
      </trkpt>
      <trkpt lat="48.30681" lon="7.27869">
        <ele>686</ele>
        <time>2020-07-25T18:35:27+02:00</time>
      </trkpt>
      <trkpt lat="48.30638" lon="7.27885">
        <ele>681</ele>
        <time>2020-07-25T18:35:32+02:00</time>
      </trkpt>
      <trkpt lat="48.30637" lon="7.27893">
        <ele>680</ele>
        <time>2020-07-25T18:35:37+02:00</time>
      </trkpt>
      <trkpt lat="48.30649" lon="7.27902">
        <ele>679</ele>
        <time>2020-07-25T18:35:42+02:00</time>
      </trkpt>
      <trkpt lat="48.30644" lon="7.27907">
        <ele>678</ele>
        <time>2020-07-25T18:35:47+02:00</time>
      </trkpt>
      <trkpt lat="48.30601" lon="7.27912">
        <ele>674</ele>
        <time>2020-07-25T18:35:52+02:00</time>
      </trkpt>
      <trkpt lat="48.3055" lon="7.27906">
        <ele>668</ele>
        <time>2020-07-25T18:35:57+02:00</time>
      </trkpt>
      <trkpt lat="48.30516" lon="7.2791">
        <ele>662</ele>
        <time>2020-07-25T18:36:02+02:00</time>
      </trkpt>
      <trkpt lat="48.30471" lon="7.27941">
        <ele>656</ele>
        <time>2020-07-25T18:36:07+02:00</time>
      </trkpt>
      <trkpt lat="48.30474" lon="7.27906">
        <ele>661</ele>
        <time>2020-07-25T18:36:12+02:00</time>
      </trkpt>
      <trkpt lat="48.30476" lon="7.27874">
        <ele>665</ele>
        <time>2020-07-25T18:36:17+02:00</time>
      </trkpt>
      <trkpt lat="48.30477" lon="7.27837">
        <ele>670</ele>
        <time>2020-07-25T18:36:22+02:00</time>
      </trkpt>
      <trkpt lat="48.30466" lon="7.27815">
        <ele>672</ele>
        <time>2020-07-25T18:36:27+02:00</time>
      </trkpt>
      <trkpt lat="48.30454" lon="7.27806">
        <ele>673</ele>
        <time>2020-07-25T18:36:32+02:00</time>
      </trkpt>
      <trkpt lat="48.30435" lon="7.27798">
        <ele>674</ele>
        <time>2020-07-25T18:36:37+02:00</time>
      </trkpt>
      <trkpt lat="48.30421" lon="7.27793">
        <ele>675</ele>
        <time>2020-07-25T18:36:42+02:00</time>
      </trkpt>
      <trkpt lat="48.30412" lon="7.27785">
        <ele>675</ele>
        <time>2020-07-25T18:36:47+02:00</time>
      </trkpt>
      <trkpt lat="48.30404" lon="7.27775">
        <ele>675</ele>
        <time>2020-07-25T18:36:52+02:00</time>
      </trkpt>
      <trkpt lat="48.304" lon="7.27758">
        <ele>675</ele>
        <time>2020-07-25T18:36:57+02:00</time>
      </trkpt>
      <trkpt lat="48.3039" lon="7.27742">
        <ele>674</ele>
        <time>2020-07-25T18:37:02+02:00</time>
      </trkpt>
      <trkpt lat="48.30383" lon="7.27736">
        <ele>673</ele>
        <time>2020-07-25T18:37:07+02:00</time>
      </trkpt>
      <trkpt lat="48.3038" lon="7.27728">
        <ele>672</ele>
        <time>2020-07-25T18:37:12+02:00</time>
      </trkpt>
      <trkpt lat="48.30345" lon="7.27716">
        <ele>667</ele>
        <time>2020-07-25T18:37:17+02:00</time>
      </trkpt>
      <trkpt lat="48.30336" lon="7.2773">
        <ele>667</ele>
        <time>2020-07-25T18:37:22+02:00</time>
      </trkpt>
      <trkpt lat="48.30294" lon="7.27799">
        <ele>668</ele>
        <time>2020-07-25T18:37:27+02:00</time>
      </trkpt>
      <trkpt lat="48.30227" lon="7.27894">
        <ele>675</ele>
        <time>2020-07-25T18:37:32+02:00</time>
      </trkpt>
      <trkpt lat="48.30201" lon="7.27907">
        <ele>677</ele>
        <time>2020-07-25T18:37:37+02:00</time>
      </trkpt>
      <trkpt lat="48.30179" lon="7.27916">
        <ele>679</ele>
        <time>2020-07-25T18:37:42+02:00</time>
      </trkpt>
      <trkpt lat="48.30092" lon="7.27948">
        <ele>686</ele>
        <time>2020-07-25T18:37:47+02:00</time>
      </trkpt>
      <trkpt lat="48.30066" lon="7.27959">
        <ele>688</ele>
        <time>2020-07-25T18:37:52+02:00</time>
      </trkpt>
      <trkpt lat="48.30035" lon="7.27974">
        <ele>691</ele>
        <time>2020-07-25T18:37:57+02:00</time>
      </trkpt>
      <trkpt lat="48.30014" lon="7.27998">
        <ele>697</ele>
        <time>2020-07-25T18:38:02+02:00</time>
      </trkpt>
      <trkpt lat="48.30001" lon="7.28028">
        <ele>701</ele>
        <time>2020-07-25T18:38:07+02:00</time>
      </trkpt>
      <trkpt lat="48.29994" lon="7.28052">
        <ele>703</ele>
        <time>2020-07-25T18:38:12+02:00</time>
      </trkpt>
      <trkpt lat="48.29983" lon="7.2807">
        <ele>705</ele>
        <time>2020-07-25T18:38:17+02:00</time>
      </trkpt>
      <trkpt lat="48.2997" lon="7.28074">
        <ele>705</ele>
        <time>2020-07-25T18:38:22+02:00</time>
      </trkpt>
      <trkpt lat="48.2995" lon="7.28071">
        <ele>704</ele>
        <time>2020-07-25T18:38:27+02:00</time>
      </trkpt>
      <trkpt lat="48.299" lon="7.28069">
        <ele>703</ele>
        <time>2020-07-25T18:38:32+02:00</time>
      </trkpt>
      <trkpt lat="48.29845" lon="7.28067">
        <ele>704</ele>
        <time>2020-07-25T18:38:37+02:00</time>
      </trkpt>
      <trkpt lat="48.29815" lon="7.28083">
        <ele>708</ele>
        <time>2020-07-25T18:38:42+02:00</time>
      </trkpt>
      <trkpt lat="48.29745" lon="7.28109">
        <ele>707</ele>
        <time>2020-07-25T18:38:47+02:00</time>
      </trkpt>
      <trkpt lat="48.29719" lon="7.28127">
        <ele>706</ele>
        <time>2020-07-25T18:38:52+02:00</time>
      </trkpt>
      <trkpt lat="48.29682" lon="7.28157">
        <ele>706</ele>
        <time>2020-07-25T18:38:57+02:00</time>
      </trkpt>
      <trkpt lat="48.29665" lon="7.28177">
        <ele>707</ele>
        <time>2020-07-25T18:39:02+02:00</time>
      </trkpt>
      <trkpt lat="48.29653" lon="7.28205">
        <ele>709</ele>
        <time>2020-07-25T18:39:07+02:00</time>
      </trkpt>
      <trkpt lat="48.29641" lon="7.28237">
        <ele>711</ele>
        <time>2020-07-25T18:39:12+02:00</time>
      </trkpt>
      <trkpt lat="48.29627" lon="7.28251">
        <ele>713</ele>
        <time>2020-07-25T18:39:17+02:00</time>
      </trkpt>
      <trkpt lat="48.29617" lon="7.2827">
        <ele>715</ele>
        <time>2020-07-25T18:39:22+02:00</time>
      </trkpt>
      <trkpt lat="48.2961" lon="7.28296">
        <ele>718</ele>
        <time>2020-07-25T18:39:27+02:00</time>
      </trkpt>
      <trkpt lat="48.29606" lon="7.28313">
        <ele>720</ele>
        <time>2020-07-25T18:39:32+02:00</time>
      </trkpt>
      <trkpt lat="48.29575" lon="7.28378">
        <ele>732</ele>
        <time>2020-07-25T18:39:37+02:00</time>
      </trkpt>
      <trkpt lat="48.29566" lon="7.28395">
        <ele>735</ele>
        <time>2020-07-25T18:39:42+02:00</time>
      </trkpt>
      <trkpt lat="48.29546" lon="7.2842">
        <ele>740</ele>
        <time>2020-07-25T18:39:47+02:00</time>
      </trkpt>
      <trkpt lat="48.29536" lon="7.28436">
        <ele>744</ele>
        <time>2020-07-25T18:39:52+02:00</time>
      </trkpt>
      <trkpt lat="48.29537" lon="7.2846">
        <ele>748</ele>
        <time>2020-07-25T18:39:57+02:00</time>
      </trkpt>
      <trkpt lat="48.29549" lon="7.28558">
        <ele>767</ele>
        <time>2020-07-25T18:40:02+02:00</time>
      </trkpt>
      <trkpt lat="48.2952" lon="7.28569">
        <ele>772</ele>
        <time>2020-07-25T18:40:07+02:00</time>
      </trkpt>
      <trkpt lat="48.2949" lon="7.28567">
        <ele>774</ele>
        <time>2020-07-25T18:40:12+02:00</time>
      </trkpt>
      <trkpt lat="48.29468" lon="7.28567">
        <ele>773</ele>
        <time>2020-07-25T18:40:17+02:00</time>
      </trkpt>
      <trkpt lat="48.29463" lon="7.28579">
        <ele>776</ele>
        <time>2020-07-25T18:40:22+02:00</time>
      </trkpt>
      <trkpt lat="48.2946" lon="7.2865">
        <ele>790</ele>
        <time>2020-07-25T18:40:27+02:00</time>
      </trkpt>
      <trkpt lat="48.29452" lon="7.28673">
        <ele>794</ele>
        <time>2020-07-25T18:40:32+02:00</time>
      </trkpt>
      <trkpt lat="48.29438" lon="7.28699">
        <ele>797</ele>
        <time>2020-07-25T18:40:37+02:00</time>
      </trkpt>
      <trkpt lat="48.29425" lon="7.28714">
        <ele>799</ele>
        <time>2020-07-25T18:40:42+02:00</time>
      </trkpt>
      <trkpt lat="48.29403" lon="7.28732">
        <ele>800</ele>
        <time>2020-07-25T18:40:47+02:00</time>
      </trkpt>
      <trkpt lat="48.29374" lon="7.28836">
        <ele>810</ele>
        <time>2020-07-25T18:40:52+02:00</time>
      </trkpt>
      <trkpt lat="48.29356" lon="7.28899">
        <ele>814</ele>
        <time>2020-07-25T18:40:57+02:00</time>
      </trkpt>
      <trkpt lat="48.29342" lon="7.28956">
        <ele>818</ele>
        <time>2020-07-25T18:41:02+02:00</time>
      </trkpt>
      <trkpt lat="48.29337" lon="7.28986">
        <ele>820</ele>
        <time>2020-07-25T18:41:07+02:00</time>
      </trkpt>
      <trkpt lat="48.29341" lon="7.29012">
        <ele>820</ele>
        <time>2020-07-25T18:41:12+02:00</time>
      </trkpt>
      <trkpt lat="48.29364" lon="7.29056">
        <ele>817</ele>
        <time>2020-07-25T18:41:17+02:00</time>
      </trkpt>
      <trkpt lat="48.29385" lon="7.29107">
        <ele>810</ele>
        <time>2020-07-25T18:41:22+02:00</time>
      </trkpt>
      <trkpt lat="48.29404" lon="7.29126">
        <ele>810</ele>
        <time>2020-07-25T18:41:27+02:00</time>
      </trkpt>
      <trkpt lat="48.29427" lon="7.2916">
        <ele>808</ele>
        <time>2020-07-25T18:41:32+02:00</time>
      </trkpt>
      <trkpt lat="48.2945" lon="7.29188">
        <ele>804</ele>
        <time>2020-07-25T18:41:37+02:00</time>
      </trkpt>
      <trkpt lat="48.29455" lon="7.2921">
        <ele>802</ele>
        <time>2020-07-25T18:41:42+02:00</time>
      </trkpt>
      <trkpt lat="48.29475" lon="7.29237">
        <ele>803</ele>
        <time>2020-07-25T18:41:47+02:00</time>
      </trkpt>
      <trkpt lat="48.29491" lon="7.29252">
        <ele>805</ele>
        <time>2020-07-25T18:41:52+02:00</time>
      </trkpt>
      <trkpt lat="48.29506" lon="7.29254">
        <ele>805</ele>
        <time>2020-07-25T18:41:57+02:00</time>
      </trkpt>
      <trkpt lat="48.2952" lon="7.29264">
        <ele>802</ele>
        <time>2020-07-25T18:42:02+02:00</time>
      </trkpt>
      <trkpt lat="48.29526" lon="7.29286">
        <ele>800</ele>
        <time>2020-07-25T18:42:07+02:00</time>
      </trkpt>
      <trkpt lat="48.29558" lon="7.29349">
        <ele>797</ele>
        <time>2020-07-25T18:42:12+02:00</time>
      </trkpt>
      <trkpt lat="48.29573" lon="7.29411">
        <ele>800</ele>
        <time>2020-07-25T18:42:17+02:00</time>
      </trkpt>
      <trkpt lat="48.29615" lon="7.29479">
        <ele>800</ele>
        <time>2020-07-25T18:42:22+02:00</time>
      </trkpt>
      <trkpt lat="48.29648" lon="7.29524">
        <ele>804</ele>
        <time>2020-07-25T18:42:27+02:00</time>
      </trkpt>
      <trkpt lat="48.2966" lon="7.29534">
        <ele>806</ele>
        <time>2020-07-25T18:42:32+02:00</time>
      </trkpt>
      <trkpt lat="48.29682" lon="7.29536">
        <ele>805</ele>
        <time>2020-07-25T18:42:37+02:00</time>
      </trkpt>
      <trkpt lat="48.2969" lon="7.29546">
        <ele>805</ele>
        <time>2020-07-25T18:42:42+02:00</time>
      </trkpt>
      <trkpt lat="48.29697" lon="7.29564">
        <ele>806</ele>
        <time>2020-07-25T18:42:47+02:00</time>
      </trkpt>
      <trkpt lat="48.29702" lon="7.2959">
        <ele>808</ele>
        <time>2020-07-25T18:42:52+02:00</time>
      </trkpt>
      <trkpt lat="48.2971" lon="7.29605">
        <ele>809</ele>
        <time>2020-07-25T18:42:57+02:00</time>
      </trkpt>
      <trkpt lat="48.29726" lon="7.29616">
        <ele>810</ele>
        <time>2020-07-25T18:43:02+02:00</time>
      </trkpt>
      <trkpt lat="48.29744" lon="7.29622">
        <ele>811</ele>
        <time>2020-07-25T18:43:07+02:00</time>
      </trkpt>
      <trkpt lat="48.29758" lon="7.29632">
        <ele>812</ele>
        <time>2020-07-25T18:43:12+02:00</time>
      </trkpt>
      <trkpt lat="48.29778" lon="7.29656">
        <ele>814</ele>
        <time>2020-07-25T18:43:17+02:00</time>
      </trkpt>
      <trkpt lat="48.29741" lon="7.29809">
        <ele>818</ele>
        <time>2020-07-25T18:43:22+02:00</time>
      </trkpt>
      <trkpt lat="48.29744" lon="7.29831">
        <ele>819</ele>
        <time>2020-07-25T18:43:27+02:00</time>
      </trkpt>
      <trkpt lat="48.29758" lon="7.29874">
        <ele>820</ele>
        <time>2020-07-25T18:43:32+02:00</time>
      </trkpt>
      <trkpt lat="48.29789" lon="7.29951">
        <ele>824</ele>
        <time>2020-07-25T18:43:37+02:00</time>
      </trkpt>
      <trkpt lat="48.29775" lon="7.30032">
        <ele>821</ele>
        <time>2020-07-25T18:43:42+02:00</time>
      </trkpt>
      <trkpt lat="48.29776" lon="7.30075">
        <ele>823</ele>
        <time>2020-07-25T18:43:47+02:00</time>
      </trkpt>
      <trkpt lat="48.29771" lon="7.30117">
        <ele>825</ele>
        <time>2020-07-25T18:43:52+02:00</time>
      </trkpt>
      <trkpt lat="48.29762" lon="7.30155">
        <ele>827</ele>
        <time>2020-07-25T18:43:57+02:00</time>
      </trkpt>
      <trkpt lat="48.29742" lon="7.3021">
        <ele>826</ele>
        <time>2020-07-25T18:44:02+02:00</time>
      </trkpt>
      <trkpt lat="48.29724" lon="7.30276">
        <ele>826</ele>
        <time>2020-07-25T18:44:07+02:00</time>
      </trkpt>
      <trkpt lat="48.29715" lon="7.30302">
        <ele>826</ele>
        <time>2020-07-25T18:44:12+02:00</time>
      </trkpt>
      <trkpt lat="48.29701" lon="7.30325">
        <ele>826</ele>
        <time>2020-07-25T18:44:17+02:00</time>
      </trkpt>
      <trkpt lat="48.29711" lon="7.30362">
        <ele>830</ele>
        <time>2020-07-25T18:44:22+02:00</time>
      </trkpt>
      <trkpt lat="48.29726" lon="7.30401">
        <ele>833</ele>
        <time>2020-07-25T18:44:27+02:00</time>
      </trkpt>
      <trkpt lat="48.29734" lon="7.30425">
        <ele>834</ele>
        <time>2020-07-25T18:44:32+02:00</time>
      </trkpt>
      <trkpt lat="48.29741" lon="7.30436">
        <ele>835</ele>
        <time>2020-07-25T18:44:37+02:00</time>
      </trkpt>
      <trkpt lat="48.29731" lon="7.30441">
        <ele>834</ele>
        <time>2020-07-25T18:44:42+02:00</time>
      </trkpt>
      <trkpt lat="48.29711" lon="7.3044">
        <ele>834</ele>
        <time>2020-07-25T18:44:47+02:00</time>
      </trkpt>
      <trkpt lat="48.29699" lon="7.30441">
        <ele>833</ele>
        <time>2020-07-25T18:44:52+02:00</time>
      </trkpt>
      <trkpt lat="48.2959" lon="7.30489">
        <ele>832</ele>
        <time>2020-07-25T18:44:57+02:00</time>
      </trkpt>
      <trkpt lat="48.2958" lon="7.30495">
        <ele>832</ele>
        <time>2020-07-25T18:45:02+02:00</time>
      </trkpt>
      <trkpt lat="48.29575" lon="7.30511">
        <ele>833</ele>
        <time>2020-07-25T18:45:07+02:00</time>
      </trkpt>
      <trkpt lat="48.29538" lon="7.30538">
        <ele>831</ele>
        <time>2020-07-25T18:45:12+02:00</time>
      </trkpt>
      <trkpt lat="48.29518" lon="7.30528">
        <ele>830</ele>
        <time>2020-07-25T18:45:17+02:00</time>
      </trkpt>
      <trkpt lat="48.29477" lon="7.30511">
        <ele>827</ele>
        <time>2020-07-25T18:45:22+02:00</time>
      </trkpt>
      <trkpt lat="48.29471" lon="7.30495">
        <ele>825</ele>
        <time>2020-07-25T18:45:27+02:00</time>
      </trkpt>
      <trkpt lat="48.29473" lon="7.30468">
        <ele>822</ele>
        <time>2020-07-25T18:45:32+02:00</time>
      </trkpt>
      <trkpt lat="48.29486" lon="7.3043">
        <ele>817</ele>
        <time>2020-07-25T18:45:37+02:00</time>
      </trkpt>
      <trkpt lat="48.29384" lon="7.30452">
        <ele>809</ele>
        <time>2020-07-25T18:45:42+02:00</time>
      </trkpt>
      <trkpt lat="48.29365" lon="7.3044">
        <ele>804</ele>
        <time>2020-07-25T18:45:47+02:00</time>
      </trkpt>
      <trkpt lat="48.29376" lon="7.30454">
        <ele>808</ele>
        <time>2020-07-25T18:45:52+02:00</time>
      </trkpt>
      <trkpt lat="48.29348" lon="7.30471">
        <ele>805</ele>
        <time>2020-07-25T18:45:57+02:00</time>
      </trkpt>
      <trkpt lat="48.2934" lon="7.30479">
        <ele>805</ele>
        <time>2020-07-25T18:46:02+02:00</time>
      </trkpt>
      <trkpt lat="48.29334" lon="7.30495">
        <ele>806</ele>
        <time>2020-07-25T18:46:07+02:00</time>
      </trkpt>
      <trkpt lat="48.29354" lon="7.30507">
        <ele>810</ele>
        <time>2020-07-25T18:46:12+02:00</time>
      </trkpt>
      <trkpt lat="48.2937" lon="7.30535">
        <ele>812</ele>
        <time>2020-07-25T18:46:17+02:00</time>
      </trkpt>
      <trkpt lat="48.29425" lon="7.30612">
        <ele>820</ele>
        <time>2020-07-25T18:46:22+02:00</time>
      </trkpt>
      <trkpt lat="48.29453" lon="7.30647">
        <ele>823</ele>
        <time>2020-07-25T18:46:27+02:00</time>
      </trkpt>
      <trkpt lat="48.29487" lon="7.30702">
        <ele>830</ele>
        <time>2020-07-25T18:46:32+02:00</time>
      </trkpt>
      <trkpt lat="48.29518" lon="7.30803">
        <ele>834</ele>
        <time>2020-07-25T18:46:37+02:00</time>
      </trkpt>
      <trkpt lat="48.2952" lon="7.30928">
        <ele>835</ele>
        <time>2020-07-25T18:46:42+02:00</time>
      </trkpt>
      <trkpt lat="48.29504" lon="7.31109">
        <ele>846</ele>
        <time>2020-07-25T18:46:47+02:00</time>
      </trkpt>
      <trkpt lat="48.29502" lon="7.31175">
        <ele>848</ele>
        <time>2020-07-25T18:46:52+02:00</time>
      </trkpt>
      <trkpt lat="48.29519" lon="7.31237">
        <ele>852</ele>
        <time>2020-07-25T18:46:57+02:00</time>
      </trkpt>
      <trkpt lat="48.29523" lon="7.31252">
        <ele>853</ele>
        <time>2020-07-25T18:47:02+02:00</time>
      </trkpt>
      <trkpt lat="48.29545" lon="7.3128">
        <ele>851</ele>
        <time>2020-07-25T18:47:07+02:00</time>
      </trkpt>
      <trkpt lat="48.2954" lon="7.31365">
        <ele>835</ele>
        <time>2020-07-25T18:47:12+02:00</time>
      </trkpt>
      <trkpt lat="48.29542" lon="7.31286">
        <ele>850</ele>
        <time>2020-07-25T18:47:17+02:00</time>
      </trkpt>
      <trkpt lat="48.29517" lon="7.31249">
        <ele>853</ele>
        <time>2020-07-25T18:47:22+02:00</time>
      </trkpt>
      <trkpt lat="48.29502" lon="7.31184">
        <ele>848</ele>
        <time>2020-07-25T18:47:27+02:00</time>
      </trkpt>
      <trkpt lat="48.29502" lon="7.31117">
        <ele>846</ele>
        <time>2020-07-25T18:47:32+02:00</time>
      </trkpt>
      <trkpt lat="48.29509" lon="7.31029">
        <ele>840</ele>
        <time>2020-07-25T18:47:37+02:00</time>
      </trkpt>
      <trkpt lat="48.29517" lon="7.30938">
        <ele>835</ele>
        <time>2020-07-25T18:47:42+02:00</time>
      </trkpt>
      <trkpt lat="48.29518" lon="7.30914">
        <ele>834</ele>
        <time>2020-07-25T18:47:47+02:00</time>
      </trkpt>
      <trkpt lat="48.29512" lon="7.30938">
        <ele>834</ele>
        <time>2020-07-25T18:47:52+02:00</time>
      </trkpt>
      <trkpt lat="48.29514" lon="7.30909">
        <ele>833</ele>
        <time>2020-07-25T18:47:57+02:00</time>
      </trkpt>
      <trkpt lat="48.29507" lon="7.30924">
        <ele>832</ele>
        <time>2020-07-25T18:48:02+02:00</time>
      </trkpt>
      <trkpt lat="48.29506" lon="7.30899">
        <ele>831</ele>
        <time>2020-07-25T18:48:07+02:00</time>
      </trkpt>
      <trkpt lat="48.2948" lon="7.30979">
        <ele>823</ele>
        <time>2020-07-25T18:48:12+02:00</time>
      </trkpt>
      <trkpt lat="48.29487" lon="7.30925">
        <ele>823</ele>
        <time>2020-07-25T18:48:17+02:00</time>
      </trkpt>
      <trkpt lat="48.29474" lon="7.3094">
        <ele>817</ele>
        <time>2020-07-25T18:48:22+02:00</time>
      </trkpt>
      <trkpt lat="48.29468" lon="7.30931">
        <ele>813</ele>
        <time>2020-07-25T18:48:27+02:00</time>
      </trkpt>
      <trkpt lat="48.29446" lon="7.30985">
        <ele>805</ele>
        <time>2020-07-25T18:48:32+02:00</time>
      </trkpt>
      <trkpt lat="48.29439" lon="7.30936">
        <ele>797</ele>
        <time>2020-07-25T18:48:37+02:00</time>
      </trkpt>
      <trkpt lat="48.29431" lon="7.30955">
        <ele>794</ele>
        <time>2020-07-25T18:48:42+02:00</time>
      </trkpt>
      <trkpt lat="48.29417" lon="7.30984">
        <ele>789</ele>
        <time>2020-07-25T18:48:47+02:00</time>
      </trkpt>
      <trkpt lat="48.29395" lon="7.31039">
        <ele>780</ele>
        <time>2020-07-25T18:48:52+02:00</time>
      </trkpt>
      <trkpt lat="48.29382" lon="7.31065">
        <ele>776</ele>
        <time>2020-07-25T18:48:57+02:00</time>
      </trkpt>
      <trkpt lat="48.2937" lon="7.31092">
        <ele>771</ele>
        <time>2020-07-25T18:49:02+02:00</time>
      </trkpt>
      <trkpt lat="48.29348" lon="7.31149">
        <ele>766</ele>
        <time>2020-07-25T18:49:07+02:00</time>
      </trkpt>
      <trkpt lat="48.29322" lon="7.31224">
        <ele>756</ele>
        <time>2020-07-25T18:49:12+02:00</time>
      </trkpt>
      <trkpt lat="48.29318" lon="7.31207">
        <ele>752</ele>
        <time>2020-07-25T18:49:17+02:00</time>
      </trkpt>
      <trkpt lat="48.29307" lon="7.3126">
        <ele>747</ele>
        <time>2020-07-25T18:49:22+02:00</time>
      </trkpt>
      <trkpt lat="48.29303" lon="7.313">
        <ele>742</ele>
        <time>2020-07-25T18:49:27+02:00</time>
      </trkpt>
      <trkpt lat="48.29311" lon="7.31353">
        <ele>739</ele>
        <time>2020-07-25T18:49:32+02:00</time>
      </trkpt>
      <trkpt lat="48.29324" lon="7.31398">
        <ele>734</ele>
        <time>2020-07-25T18:49:37+02:00</time>
      </trkpt>
      <trkpt lat="48.29354" lon="7.31462">
        <ele>732</ele>
        <time>2020-07-25T18:49:42+02:00</time>
      </trkpt>
      <trkpt lat="48.29377" lon="7.31527">
        <ele>724</ele>
        <time>2020-07-25T18:49:47+02:00</time>
      </trkpt>
      <trkpt lat="48.29423" lon="7.3162">
        <ele>716</ele>
        <time>2020-07-25T18:49:52+02:00</time>
      </trkpt>
      <trkpt lat="48.29461" lon="7.31723">
        <ele>697</ele>
        <time>2020-07-25T18:49:57+02:00</time>
      </trkpt>
      <trkpt lat="48.29495" lon="7.31801">
        <ele>685</ele>
        <time>2020-07-25T18:50:02+02:00</time>
      </trkpt>
      <trkpt lat="48.295" lon="7.31826">
        <ele>680</ele>
        <time>2020-07-25T18:50:07+02:00</time>
      </trkpt>
      <trkpt lat="48.29538" lon="7.31891">
        <ele>666</ele>
        <time>2020-07-25T18:50:12+02:00</time>
      </trkpt>
      <trkpt lat="48.2956" lon="7.31936">
        <ele>661</ele>
        <time>2020-07-25T18:50:17+02:00</time>
      </trkpt>
      <trkpt lat="48.29572" lon="7.31989">
        <ele>657</ele>
        <time>2020-07-25T18:50:22+02:00</time>
      </trkpt>
      <trkpt lat="48.29573" lon="7.32047">
        <ele>655</ele>
        <time>2020-07-25T18:50:27+02:00</time>
      </trkpt>
      <trkpt lat="48.2957" lon="7.32102">
        <ele>654</ele>
        <time>2020-07-25T18:50:32+02:00</time>
      </trkpt>
      <trkpt lat="48.29571" lon="7.3218">
        <ele>659</ele>
        <time>2020-07-25T18:50:37+02:00</time>
      </trkpt>
      <trkpt lat="48.29555" lon="7.32297">
        <ele>669</ele>
        <time>2020-07-25T18:50:42+02:00</time>
      </trkpt>
      <trkpt lat="48.29541" lon="7.32306">
        <ele>669</ele>
        <time>2020-07-25T18:50:47+02:00</time>
      </trkpt>
      <trkpt lat="48.29493" lon="7.32331">
        <ele>666</ele>
        <time>2020-07-25T18:50:52+02:00</time>
      </trkpt>
      <trkpt lat="48.29502" lon="7.3233">
        <ele>669</ele>
        <time>2020-07-25T18:50:57+02:00</time>
      </trkpt>
      <trkpt lat="48.29532" lon="7.32315">
        <ele>669</ele>
        <time>2020-07-25T18:51:02+02:00</time>
      </trkpt>
      <trkpt lat="48.29556" lon="7.32302">
        <ele>670</ele>
        <time>2020-07-25T18:51:07+02:00</time>
      </trkpt>
      <trkpt lat="48.29556" lon="7.32336">
        <ele>674</ele>
        <time>2020-07-25T18:51:12+02:00</time>
      </trkpt>
      <trkpt lat="48.2955" lon="7.32357">
        <ele>677</ele>
        <time>2020-07-25T18:51:17+02:00</time>
      </trkpt>
      <trkpt lat="48.29535" lon="7.32369">
        <ele>678</ele>
        <time>2020-07-25T18:51:22+02:00</time>
      </trkpt>
      <trkpt lat="48.29511" lon="7.32403">
        <ele>683</ele>
        <time>2020-07-25T18:51:27+02:00</time>
      </trkpt>
      <trkpt lat="48.29502" lon="7.32441">
        <ele>689</ele>
        <time>2020-07-25T18:51:32+02:00</time>
      </trkpt>
      <trkpt lat="48.29531" lon="7.32454">
        <ele>689</ele>
        <time>2020-07-25T18:51:37+02:00</time>
      </trkpt>
      <trkpt lat="48.2955" lon="7.32467">
        <ele>689</ele>
        <time>2020-07-25T18:51:42+02:00</time>
      </trkpt>
      <trkpt lat="48.29564" lon="7.32506">
        <ele>691</ele>
        <time>2020-07-25T18:51:47+02:00</time>
      </trkpt>
      <trkpt lat="48.29559" lon="7.32517">
        <ele>691</ele>
        <time>2020-07-25T18:51:52+02:00</time>
      </trkpt>
      <trkpt lat="48.29548" lon="7.32512">
        <ele>692</ele>
        <time>2020-07-25T18:51:57+02:00</time>
      </trkpt>
      <trkpt lat="48.29518" lon="7.32485">
        <ele>692</ele>
        <time>2020-07-25T18:52:02+02:00</time>
      </trkpt>
      <trkpt lat="48.29494" lon="7.32504">
        <ele>692</ele>
        <time>2020-07-25T18:52:07+02:00</time>
      </trkpt>
      <trkpt lat="48.2954" lon="7.3251">
        <ele>692</ele>
        <time>2020-07-25T18:52:12+02:00</time>
      </trkpt>
      <trkpt lat="48.29557" lon="7.32523">
        <ele>691</ele>
        <time>2020-07-25T18:52:17+02:00</time>
      </trkpt>
      <trkpt lat="48.29567" lon="7.3251">
        <ele>691</ele>
        <time>2020-07-25T18:52:22+02:00</time>
      </trkpt>
      <trkpt lat="48.29564" lon="7.32486">
        <ele>690</ele>
        <time>2020-07-25T18:52:27+02:00</time>
      </trkpt>
      <trkpt lat="48.29553" lon="7.32462">
        <ele>689</ele>
        <time>2020-07-25T18:52:32+02:00</time>
      </trkpt>
      <trkpt lat="48.29533" lon="7.32444">
        <ele>688</ele>
        <time>2020-07-25T18:52:37+02:00</time>
      </trkpt>
      <trkpt lat="48.29522" lon="7.32446">
        <ele>689</ele>
        <time>2020-07-25T18:52:42+02:00</time>
      </trkpt>
      <trkpt lat="48.29507" lon="7.32437">
        <ele>688</ele>
        <time>2020-07-25T18:52:47+02:00</time>
      </trkpt>
      <trkpt lat="48.29511" lon="7.3242">
        <ele>686</ele>
        <time>2020-07-25T18:52:52+02:00</time>
      </trkpt>
      <trkpt lat="48.2952" lon="7.32395">
        <ele>682</ele>
        <time>2020-07-25T18:52:57+02:00</time>
      </trkpt>
      <trkpt lat="48.29539" lon="7.32372">
        <ele>679</ele>
        <time>2020-07-25T18:53:02+02:00</time>
      </trkpt>
      <trkpt lat="48.29554" lon="7.32357">
        <ele>677</ele>
        <time>2020-07-25T18:53:07+02:00</time>
      </trkpt>
      <trkpt lat="48.2956" lon="7.32336">
        <ele>675</ele>
        <time>2020-07-25T18:53:12+02:00</time>
      </trkpt>
      <trkpt lat="48.29559" lon="7.32295">
        <ele>669</ele>
        <time>2020-07-25T18:53:17+02:00</time>
      </trkpt>
      <trkpt lat="48.29575" lon="7.32175">
        <ele>659</ele>
        <time>2020-07-25T18:53:22+02:00</time>
      </trkpt>
      <trkpt lat="48.29573" lon="7.32111">
        <ele>655</ele>
        <time>2020-07-25T18:53:27+02:00</time>
      </trkpt>
      <trkpt lat="48.29576" lon="7.32019">
        <ele>656</ele>
        <time>2020-07-25T18:53:32+02:00</time>
      </trkpt>
      <trkpt lat="48.29581" lon="7.31996">
        <ele>658</ele>
        <time>2020-07-25T18:53:37+02:00</time>
      </trkpt>
      <trkpt lat="48.29585" lon="7.31968">
        <ele>660</ele>
        <time>2020-07-25T18:53:42+02:00</time>
      </trkpt>
      <trkpt lat="48.29586" lon="7.31918">
        <ele>664</ele>
        <time>2020-07-25T18:53:47+02:00</time>
      </trkpt>
      <trkpt lat="48.29591" lon="7.31862">
        <ele>671</ele>
        <time>2020-07-25T18:53:52+02:00</time>
      </trkpt>
      <trkpt lat="48.29598" lon="7.31828">
        <ele>675</ele>
        <time>2020-07-25T18:53:57+02:00</time>
      </trkpt>
      <trkpt lat="48.29609" lon="7.31794">
        <ele>681</ele>
        <time>2020-07-25T18:54:02+02:00</time>
      </trkpt>
      <trkpt lat="48.29624" lon="7.31753">
        <ele>687</ele>
        <time>2020-07-25T18:54:07+02:00</time>
      </trkpt>
      <trkpt lat="48.2965" lon="7.31692">
        <ele>695</ele>
        <time>2020-07-25T18:54:12+02:00</time>
      </trkpt>
      <trkpt lat="48.2967" lon="7.31657">
        <ele>696</ele>
        <time>2020-07-25T18:54:17+02:00</time>
      </trkpt>
      <trkpt lat="48.29688" lon="7.31634">
        <ele>696</ele>
        <time>2020-07-25T18:54:22+02:00</time>
      </trkpt>
      <trkpt lat="48.29737" lon="7.31545">
        <ele>705</ele>
        <time>2020-07-25T18:54:27+02:00</time>
      </trkpt>
      <trkpt lat="48.29785" lon="7.31475">
        <ele>710</ele>
        <time>2020-07-25T18:54:32+02:00</time>
      </trkpt>
      <trkpt lat="48.29808" lon="7.31427">
        <ele>715</ele>
        <time>2020-07-25T18:54:37+02:00</time>
      </trkpt>
      <trkpt lat="48.29818" lon="7.3138">
        <ele>723</ele>
        <time>2020-07-25T18:54:42+02:00</time>
      </trkpt>
      <trkpt lat="48.29836" lon="7.31327">
        <ele>728</ele>
        <time>2020-07-25T18:54:47+02:00</time>
      </trkpt>
      <trkpt lat="48.29851" lon="7.31259">
        <ele>736</ele>
        <time>2020-07-25T18:54:52+02:00</time>
      </trkpt>
      <trkpt lat="48.29875" lon="7.31223">
        <ele>734</ele>
        <time>2020-07-25T18:54:57+02:00</time>
      </trkpt>
      <trkpt lat="48.29895" lon="7.31178">
        <ele>736</ele>
        <time>2020-07-25T18:55:02+02:00</time>
      </trkpt>
      <trkpt lat="48.2992" lon="7.31098">
        <ele>743</ele>
        <time>2020-07-25T18:55:07+02:00</time>
      </trkpt>
      <trkpt lat="48.29937" lon="7.31019">
        <ele>756</ele>
        <time>2020-07-25T18:55:12+02:00</time>
      </trkpt>
      <trkpt lat="48.2995" lon="7.30991">
        <ele>758</ele>
        <time>2020-07-25T18:55:17+02:00</time>
      </trkpt>
      <trkpt lat="48.29997" lon="7.30916">
        <ele>759</ele>
        <time>2020-07-25T18:55:22+02:00</time>
      </trkpt>
      <trkpt lat="48.30003" lon="7.30893">
        <ele>760</ele>
        <time>2020-07-25T18:55:27+02:00</time>
      </trkpt>
      <trkpt lat="48.30014" lon="7.30852">
        <ele>762</ele>
        <time>2020-07-25T18:55:32+02:00</time>
      </trkpt>
      <trkpt lat="48.29994" lon="7.30812">
        <ele>766</ele>
        <time>2020-07-25T18:55:37+02:00</time>
      </trkpt>
      <trkpt lat="48.2998" lon="7.30763">
        <ele>769</ele>
        <time>2020-07-25T18:55:42+02:00</time>
      </trkpt>
      <trkpt lat="48.2998" lon="7.30718">
        <ele>770</ele>
        <time>2020-07-25T18:55:47+02:00</time>
      </trkpt>
      <trkpt lat="48.2999" lon="7.30634">
        <ele>769</ele>
        <time>2020-07-25T18:55:52+02:00</time>
      </trkpt>
      <trkpt lat="48.30015" lon="7.30542">
        <ele>769</ele>
        <time>2020-07-25T18:55:57+02:00</time>
      </trkpt>
      <trkpt lat="48.30045" lon="7.30474">
        <ele>772</ele>
        <time>2020-07-25T18:56:02+02:00</time>
      </trkpt>
      <trkpt lat="48.30069" lon="7.30457">
        <ele>769</ele>
        <time>2020-07-25T18:56:07+02:00</time>
      </trkpt>
      <trkpt lat="48.30094" lon="7.30423">
        <ele>768</ele>
        <time>2020-07-25T18:56:12+02:00</time>
      </trkpt>
      <trkpt lat="48.30113" lon="7.30385">
        <ele>766</ele>
        <time>2020-07-25T18:56:17+02:00</time>
      </trkpt>
      <trkpt lat="48.30127" lon="7.30352">
        <ele>765</ele>
        <time>2020-07-25T18:56:22+02:00</time>
      </trkpt>
      <trkpt lat="48.30137" lon="7.30311">
        <ele>765</ele>
        <time>2020-07-25T18:56:27+02:00</time>
      </trkpt>
      <trkpt lat="48.30147" lon="7.30211">
        <ele>767</ele>
        <time>2020-07-25T18:56:32+02:00</time>
      </trkpt>
      <trkpt lat="48.30146" lon="7.3">
        <ele>766</ele>
        <time>2020-07-25T18:56:37+02:00</time>
      </trkpt>
      <trkpt lat="48.30151" lon="7.2996">
        <ele>768</ele>
        <time>2020-07-25T18:56:42+02:00</time>
      </trkpt>
      <trkpt lat="48.30163" lon="7.29924">
        <ele>768</ele>
        <time>2020-07-25T18:56:47+02:00</time>
      </trkpt>
      <trkpt lat="48.30204" lon="7.29823">
        <ele>765</ele>
        <time>2020-07-25T18:56:52+02:00</time>
      </trkpt>
      <trkpt lat="48.30232" lon="7.29749">
        <ele>767</ele>
        <time>2020-07-25T18:56:57+02:00</time>
      </trkpt>
      <trkpt lat="48.30254" lon="7.29678">
        <ele>769</ele>
        <time>2020-07-25T18:57:02+02:00</time>
      </trkpt>
      <trkpt lat="48.30273" lon="7.29592">
        <ele>765</ele>
        <time>2020-07-25T18:57:07+02:00</time>
      </trkpt>
      <trkpt lat="48.30284" lon="7.29517">
        <ele>758</ele>
        <time>2020-07-25T18:57:12+02:00</time>
      </trkpt>
      <trkpt lat="48.30294" lon="7.29457">
        <ele>753</ele>
        <time>2020-07-25T18:57:17+02:00</time>
      </trkpt>
      <trkpt lat="48.30302" lon="7.29419">
        <ele>752</ele>
        <time>2020-07-25T18:57:22+02:00</time>
      </trkpt>
      <trkpt lat="48.30326" lon="7.29317">
        <ele>760</ele>
        <time>2020-07-25T18:57:27+02:00</time>
      </trkpt>
      <trkpt lat="48.3034" lon="7.29305">
        <ele>762</ele>
        <time>2020-07-25T18:57:32+02:00</time>
      </trkpt>
      <trkpt lat="48.3038" lon="7.29121">
        <ele>756</ele>
        <time>2020-07-25T18:57:37+02:00</time>
      </trkpt>
      <trkpt lat="48.30393" lon="7.29081">
        <ele>753</ele>
        <time>2020-07-25T18:57:42+02:00</time>
      </trkpt>
      <trkpt lat="48.30377" lon="7.29087">
        <ele>753</ele>
        <time>2020-07-25T18:57:47+02:00</time>
      </trkpt>
      <trkpt lat="48.30364" lon="7.29075">
        <ele>751</ele>
        <time>2020-07-25T18:57:52+02:00</time>
      </trkpt>
      <trkpt lat="48.30359" lon="7.29054">
        <ele>748</ele>
        <time>2020-07-25T18:57:57+02:00</time>
      </trkpt>
      <trkpt lat="48.30363" lon="7.29029">
        <ele>744</ele>
        <time>2020-07-25T18:58:02+02:00</time>
      </trkpt>
      <trkpt lat="48.30369" lon="7.29001">
        <ele>739</ele>
        <time>2020-07-25T18:58:07+02:00</time>
      </trkpt>
      <trkpt lat="48.30391" lon="7.28984">
        <ele>737</ele>
        <time>2020-07-25T18:58:12+02:00</time>
      </trkpt>
      <trkpt lat="48.30403" lon="7.28991">
        <ele>739</ele>
        <time>2020-07-25T18:58:17+02:00</time>
      </trkpt>
      <trkpt lat="48.30406" lon="7.29015">
        <ele>743</ele>
        <time>2020-07-25T18:58:22+02:00</time>
      </trkpt>
      <trkpt lat="48.30413" lon="7.29037">
        <ele>747</ele>
        <time>2020-07-25T18:58:27+02:00</time>
      </trkpt>
      <trkpt lat="48.30427" lon="7.29046">
        <ele>746</ele>
        <time>2020-07-25T18:58:32+02:00</time>
      </trkpt>
      <trkpt lat="48.30484" lon="7.28991">
        <ele>725</ele>
        <time>2020-07-25T18:58:37+02:00</time>
      </trkpt>
      <trkpt lat="48.30478" lon="7.28947">
        <ele>722</ele>
        <time>2020-07-25T18:58:42+02:00</time>
      </trkpt>
      <trkpt lat="48.30472" lon="7.28929">
        <ele>721</ele>
        <time>2020-07-25T18:58:47+02:00</time>
      </trkpt>
      <trkpt lat="48.30505" lon="7.289">
        <ele>712</ele>
        <time>2020-07-25T18:58:52+02:00</time>
      </trkpt>
      <trkpt lat="48.30524" lon="7.28897">
        <ele>707</ele>
        <time>2020-07-25T18:58:57+02:00</time>
      </trkpt>
      <trkpt lat="48.30614" lon="7.28903">
        <ele>682</ele>
        <time>2020-07-25T18:59:02+02:00</time>
      </trkpt>
      <trkpt lat="48.30641" lon="7.28937">
        <ele>671</ele>
        <time>2020-07-25T18:59:07+02:00</time>
      </trkpt>
      <trkpt lat="48.30667" lon="7.2888">
        <ele>662</ele>
        <time>2020-07-25T18:59:12+02:00</time>
      </trkpt>
      <trkpt lat="48.30676" lon="7.28827">
        <ele>654</ele>
        <time>2020-07-25T18:59:17+02:00</time>
      </trkpt>
      <trkpt lat="48.30692" lon="7.28842">
        <ele>646</ele>
        <time>2020-07-25T18:59:22+02:00</time>
      </trkpt>
      <trkpt lat="48.30703" lon="7.28866">
        <ele>641</ele>
        <time>2020-07-25T18:59:27+02:00</time>
      </trkpt>
      <trkpt lat="48.30723" lon="7.28959">
        <ele>626</ele>
        <time>2020-07-25T18:59:32+02:00</time>
      </trkpt>
      <trkpt lat="48.30735" lon="7.28937">
        <ele>621</ele>
        <time>2020-07-25T18:59:37+02:00</time>
      </trkpt>
      <trkpt lat="48.30746" lon="7.28891">
        <ele>617</ele>
        <time>2020-07-25T18:59:42+02:00</time>
      </trkpt>
      <trkpt lat="48.30759" lon="7.28937">
        <ele>607</ele>
        <time>2020-07-25T18:59:47+02:00</time>
      </trkpt>
      <trkpt lat="48.30777" lon="7.28901">
        <ele>600</ele>
        <time>2020-07-25T18:59:52+02:00</time>
      </trkpt>
      <trkpt lat="48.30779" lon="7.28978">
        <ele>592</ele>
        <time>2020-07-25T18:59:57+02:00</time>
      </trkpt>
      <trkpt lat="48.30815" lon="7.28988">
        <ele>572</ele>
        <time>2020-07-25T19:00:02+02:00</time>
      </trkpt>
      <trkpt lat="48.30836" lon="7.28912">
        <ele>568</ele>
        <time>2020-07-25T19:00:07+02:00</time>
      </trkpt>
      <trkpt lat="48.30829" lon="7.28802">
        <ele>564</ele>
        <time>2020-07-25T19:00:12+02:00</time>
      </trkpt>
      <trkpt lat="48.30861" lon="7.28852">
        <ele>554</ele>
        <time>2020-07-25T19:00:17+02:00</time>
      </trkpt>
      <trkpt lat="48.30883" lon="7.28897">
        <ele>544</ele>
        <time>2020-07-25T19:00:22+02:00</time>
      </trkpt>
      <trkpt lat="48.30927" lon="7.29016">
        <ele>515</ele>
        <time>2020-07-25T19:00:27+02:00</time>
      </trkpt>
      <trkpt lat="48.30945" lon="7.28981">
        <ele>513</ele>
        <time>2020-07-25T19:00:32+02:00</time>
      </trkpt>
      <trkpt lat="48.30971" lon="7.2889">
        <ele>506</ele>
        <time>2020-07-25T19:00:37+02:00</time>
      </trkpt>
      <trkpt lat="48.30985" lon="7.28951">
        <ele>501</ele>
        <time>2020-07-25T19:00:42+02:00</time>
      </trkpt>
      <trkpt lat="48.30988" lon="7.28983">
        <ele>497</ele>
        <time>2020-07-25T19:00:47+02:00</time>
      </trkpt>
      <trkpt lat="48.30983" lon="7.29025">
        <ele>494</ele>
        <time>2020-07-25T19:00:52+02:00</time>
      </trkpt>
      <trkpt lat="48.30974" lon="7.29059">
        <ele>494</ele>
        <time>2020-07-25T19:00:57+02:00</time>
      </trkpt>
      <trkpt lat="48.30961" lon="7.29122">
        <ele>489</ele>
        <time>2020-07-25T19:01:02+02:00</time>
      </trkpt>
      <trkpt lat="48.30928" lon="7.2922">
        <ele>483</ele>
        <time>2020-07-25T19:01:07+02:00</time>
      </trkpt>
      <trkpt lat="48.30982" lon="7.29184">
        <ele>473</ele>
        <time>2020-07-25T19:01:12+02:00</time>
      </trkpt>
      <trkpt lat="48.31014" lon="7.29151">
        <ele>468</ele>
        <time>2020-07-25T19:01:17+02:00</time>
      </trkpt>
      <trkpt lat="48.31012" lon="7.29216">
        <ele>460</ele>
        <time>2020-07-25T19:01:22+02:00</time>
      </trkpt>
      <trkpt lat="48.31045" lon="7.29173">
        <ele>459</ele>
        <time>2020-07-25T19:01:27+02:00</time>
      </trkpt>
      <trkpt lat="48.31084" lon="7.29134">
        <ele>449</ele>
        <time>2020-07-25T19:01:32+02:00</time>
      </trkpt>
      <trkpt lat="48.31127" lon="7.29106">
        <ele>446</ele>
        <time>2020-07-25T19:01:37+02:00</time>
      </trkpt>
      <trkpt lat="48.31155" lon="7.29072">
        <ele>441</ele>
        <time>2020-07-25T19:01:42+02:00</time>
      </trkpt>
      <trkpt lat="48.31195" lon="7.29071">
        <ele>436</ele>
        <time>2020-07-25T19:01:47+02:00</time>
      </trkpt>
      <trkpt lat="48.31236" lon="7.29037">
        <ele>427</ele>
        <time>2020-07-25T19:01:52+02:00</time>
      </trkpt>
      <trkpt lat="48.31255" lon="7.29028">
        <ele>422</ele>
        <time>2020-07-25T19:01:57+02:00</time>
      </trkpt>
      <trkpt lat="48.31296" lon="7.29035">
        <ele>419</ele>
        <time>2020-07-25T19:02:02+02:00</time>
      </trkpt>
      <trkpt lat="48.31312" lon="7.29026">
        <ele>416</ele>
        <time>2020-07-25T19:02:07+02:00</time>
      </trkpt>
      <trkpt lat="48.31331" lon="7.29003">
        <ele>411</ele>
        <time>2020-07-25T19:02:12+02:00</time>
      </trkpt>
    </trkseg>
  </trk>
</gpx>